sensor_id;sensor_type;location;lat;lon;timestamp;P1;durP1;ratioP1;P2;durP2;ratioP2
5006;SDS011;2522;50.972;11.046;2022-08-19T03:32:48;26.73;;;15.27;;
5006;SDS011;2522;50.972;11.046;2022-08-19T03:35:15;26.10;;;14.50;;
5006;SDS011;2522;50.972;11.046;2022-08-19T03:37:42;22.80;;;13.50;;
5006;SDS011;2522;50.972;11.046;2022-08-19T03:40:09;22.13;;;13.07;;
5006;SDS011;2522;50.972;11.046;2022-08-19T03:42:36;21.60;;;13.27;;
5006;SDS011;2522;50.972;11.046;2022-08-19T03:45:07;28.90;;;12.90;;
5006;SDS011;2522;50.972;11.046;2022-08-19T03:47:35;23.97;;;12.93;;
5006;SDS011;2522;50.972;11.046;2022-08-19T03:50:04;22.53;;;12.90;;
5006;SDS011;2522;50.972;11.046;2022-08-19T03:52:31;22.50;;;12.80;;
5006;SDS011;2522;50.972;11.046;2022-08-19T03:54:58;21.93;;;13.23;;
5006;SDS011;2522;50.972;11.046;2022-08-19T03:57:25;24.30;;;12.57;;
5006;SDS011;2522;50.972;11.046;2022-08-19T03:59:52;25.83;;;12.40;;
5006;SDS011;2522;50.972;11.046;2022-08-19T04:02:19;20.00;;;11.73;;
5006;SDS011;2522;50.972;11.046;2022-08-19T04:04:46;23.40;;;12.30;;
5006;SDS011;2522;50.972;11.046;2022-08-19T04:07:14;21.20;;;12.53;;
5006;SDS011;2522;50.972;11.046;2022-08-19T04:09:43;19.80;;;11.70;;
5006;SDS011;2522;50.972;11.046;2022-08-19T04:12:10;21.97;;;12.43;;
5006;SDS011;2522;50.972;11.046;2022-08-19T04:14:37;22.87;;;13.00;;
5006;SDS011;2522;50.972;11.046;2022-08-19T04:17:04;21.27;;;12.50;;
5006;SDS011;2522;50.972;11.046;2022-08-19T04:19:32;26.87;;;12.33;;
5006;SDS011;2522;50.972;11.046;2022-08-19T04:22:00;21.60;;;13.60;;
5006;SDS011;2522;50.972;11.046;2022-08-19T04:24:29;29.07;;;13.67;;
5006;SDS011;2522;50.972;11.046;2022-08-19T04:26:58;24.40;;;13.03;;
5006;SDS011;2522;50.972;11.046;2022-08-19T04:29:25;20.30;;;12.53;;
5006;SDS011;2522;50.972;11.046;2022-08-19T04:31:53;23.70;;;12.60;;
5006;SDS011;2522;50.972;11.046;2022-08-19T04:34:23;29.50;;;15.00;;
5006;SDS011;2522;50.972;11.046;2022-08-19T04:36:51;25.03;;;14.37;;
5006;SDS011;2522;50.972;11.046;2022-08-19T04:39:21;26.60;;;15.30;;
5006;SDS011;2522;50.972;11.046;2022-08-19T04:42:13;29.80;;;16.87;;
5006;SDS011;2522;50.972;11.046;2022-08-19T04:44:58;24.20;;;14.97;;
5006;SDS011;2522;50.972;11.046;2022-08-19T04:47:25;29.03;;;15.60;;
5006;SDS011;2522;50.972;11.046;2022-08-19T04:49:52;22.20;;;14.27;;
5006;SDS011;2522;50.972;11.046;2022-08-19T04:52:19;30.67;;;15.67;;
5006;SDS011;2522;50.972;11.046;2022-08-19T04:54:46;27.00;;;15.10;;
5006;SDS011;2522;50.972;11.046;2022-08-19T04:57:14;28.50;;;15.20;;
5006;SDS011;2522;50.972;11.046;2022-08-19T04:59:41;24.47;;;14.37;;
5006;SDS011;2522;50.972;11.046;2022-08-19T05:02:08;43.57;;;17.90;;
5006;SDS011;2522;50.972;11.046;2022-08-19T05:04:36;28.10;;;16.30;;
5006;SDS011;2522;50.972;11.046;2022-08-19T05:07:04;29.97;;;15.00;;
5006;SDS011;2522;50.972;11.046;2022-08-19T05:09:31;30.40;;;16.90;;
5006;SDS011;2522;50.972;11.046;2022-08-19T05:11:58;27.67;;;16.40;;
5006;SDS011;2522;50.972;11.046;2022-08-19T05:14:26;28.30;;;14.83;;
5006;SDS011;2522;50.972;11.046;2022-08-19T05:16:54;44.17;;;15.43;;
5006;SDS011;2522;50.972;11.046;2022-08-19T05:19:21;33.10;;;16.50;;
5006;SDS011;2522;50.972;11.046;2022-08-19T05:22:06;28.47;;;14.70;;
5006;SDS011;2522;50.972;11.046;2022-08-19T05:24:50;29.90;;;16.00;;
5006;SDS011;2522;50.972;11.046;2022-08-19T05:27:17;27.30;;;15.67;;
5006;SDS011;2522;50.972;11.046;2022-08-19T05:29:45;35.30;;;16.37;;
5006;SDS011;2522;50.972;11.046;2022-08-19T05:32:12;35.10;;;14.60;;
5006;SDS011;2522;50.972;11.046;2022-08-19T05:34:39;29.40;;;15.70;;
5006;SDS011;2522;50.972;11.046;2022-08-19T05:37:06;33.00;;;16.90;;
5006;SDS011;2522;50.972;11.046;2022-08-19T05:39:34;28.40;;;15.70;;
5006;SDS011;2522;50.972;11.046;2022-08-19T05:42:04;31.50;;;16.77;;
5006;SDS011;2522;50.972;11.046;2022-08-19T05:44:33;34.80;;;16.90;;
5006;SDS011;2522;50.972;11.046;2022-08-19T05:47:04;31.50;;;17.17;;
5006;SDS011;2522;50.972;11.046;2022-08-19T05:49:33;34.17;;;17.70;;
5006;SDS011;2522;50.972;11.046;2022-08-19T05:52:02;27.27;;;15.00;;
5006;SDS011;2522;50.972;11.046;2022-08-19T05:54:30;28.90;;;14.73;;
5006;SDS011;2522;50.972;11.046;2022-08-19T05:56:58;26.77;;;14.87;;
5006;SDS011;2522;50.972;11.046;2022-08-19T05:59:28;26.17;;;14.43;;
5006;SDS011;2522;50.972;11.046;2022-08-19T06:01:55;26.17;;;15.07;;
5006;SDS011;2522;50.972;11.046;2022-08-19T06:04:23;27.00;;;15.43;;
5006;SDS011;2522;50.972;11.046;2022-08-19T06:06:51;23.50;;;13.63;;
5006;SDS011;2522;50.972;11.046;2022-08-19T06:09:19;25.57;;;13.43;;
5006;SDS011;2522;50.972;11.046;2022-08-19T06:11:47;24.63;;;13.83;;
5006;SDS011;2522;50.972;11.046;2022-08-19T06:14:19;20.83;;;11.63;;
5006;SDS011;2522;50.972;11.046;2022-08-19T06:16:47;23.47;;;12.77;;
5006;SDS011;2522;50.972;11.046;2022-08-19T06:19:17;29.10;;;13.17;;
5006;SDS011;2522;50.972;11.046;2022-08-19T06:21:47;43.87;;;14.60;;
5006;SDS011;2522;50.972;11.046;2022-08-19T06:24:16;22.40;;;12.30;;
5006;SDS011;2522;50.972;11.046;2022-08-19T06:26:45;22.10;;;10.90;;
5006;SDS011;2522;50.972;11.046;2022-08-19T06:29:15;21.77;;;9.63;;
5006;SDS011;2522;50.972;11.046;2022-08-19T06:31:43;18.03;;;10.30;;
5006;SDS011;2522;50.972;11.046;2022-08-19T06:34:11;20.73;;;10.00;;
5006;SDS011;2522;50.972;11.046;2022-08-19T06:36:41;18.43;;;9.37;;
5006;SDS011;2522;50.972;11.046;2022-08-19T06:39:13;22.37;;;8.70;;
5006;SDS011;2522;50.972;11.046;2022-08-19T06:41:43;13.23;;;9.00;;
5006;SDS011;2522;50.972;11.046;2022-08-19T06:44:12;14.93;;;8.77;;
5006;SDS011;2522;50.972;11.046;2022-08-19T06:46:39;19.10;;;8.93;;
5006;SDS011;2522;50.972;11.046;2022-08-19T06:49:06;17.50;;;8.73;;
5006;SDS011;2522;50.972;11.046;2022-08-19T06:51:39;14.13;;;7.83;;
5006;SDS011;2522;50.972;11.046;2022-08-19T06:54:07;19.57;;;7.87;;
5006;SDS011;2522;50.972;11.046;2022-08-19T06:56:36;13.63;;;7.33;;
5006;SDS011;2522;50.972;11.046;2022-08-19T06:59:04;12.03;;;6.83;;
5006;SDS011;2522;50.972;11.046;2022-08-19T07:01:34;13.90;;;7.77;;
5006;SDS011;2522;50.972;11.046;2022-08-19T07:04:02;15.23;;;7.67;;
5006;SDS011;2522;50.972;11.046;2022-08-19T07:06:30;18.23;;;6.40;;
5006;SDS011;2522;50.972;11.046;2022-08-19T07:08:57;13.70;;;7.60;;
5006;SDS011;2522;50.972;11.046;2022-08-19T07:11:24;14.40;;;6.53;;
5006;SDS011;2522;50.972;11.046;2022-08-19T07:13:52;13.77;;;8.03;;
5006;SDS011;2522;50.972;11.046;2022-08-19T07:16:19;12.83;;;6.93;;
5006;SDS011;2522;50.972;11.046;2022-08-19T07:18:47;9.77;;;6.00;;
5006;SDS011;2522;50.972;11.046;2022-08-19T07:21:15;10.50;;;5.40;;
5006;SDS011;2522;50.972;11.046;2022-08-19T07:23:43;9.53;;;5.50;;
5006;SDS011;2522;50.972;11.046;2022-08-19T07:26:15;9.17;;;5.17;;
5006;SDS011;2522;50.972;11.046;2022-08-19T07:28:44;9.97;;;5.93;;
5006;SDS011;2522;50.972;11.046;2022-08-19T07:31:13;14.30;;;6.43;;
5006;SDS011;2522;50.972;11.046;2022-08-19T07:33:46;10.60;;;5.10;;
5006;SDS011;2522;50.972;11.046;2022-08-19T07:36:16;11.17;;;4.70;;
5006;SDS011;2522;50.972;11.046;2022-08-19T07:38:44;9.33;;;5.57;;
5006;SDS011;2522;50.972;11.046;2022-08-19T07:41:15;8.83;;;4.80;;
5006;SDS011;2522;50.972;11.046;2022-08-19T07:43:46;8.53;;;4.40;;
5006;SDS011;2522;50.972;11.046;2022-08-19T07:46:17;8.87;;;4.80;;
5006;SDS011;2522;50.972;11.046;2022-08-19T07:48:48;21.07;;;6.07;;
5006;SDS011;2522;50.972;11.046;2022-08-19T07:51:17;7.37;;;3.97;;
5006;SDS011;2522;50.972;11.046;2022-08-19T07:53:46;9.23;;;5.27;;
5006;SDS011;2522;50.972;11.046;2022-08-19T07:56:16;9.77;;;4.53;;
5006;SDS011;2522;50.972;11.046;2022-08-19T07:58:44;8.73;;;4.57;;
5006;SDS011;2522;50.972;11.046;2022-08-19T08:01:16;7.03;;;4.13;;
5006;SDS011;2522;50.972;11.046;2022-08-19T08:03:46;9.43;;;4.57;;
5006;SDS011;2522;50.972;11.046;2022-08-19T08:06:31;6.70;;;3.97;;
5006;SDS011;2522;50.972;11.046;2022-08-19T08:09:16;8.50;;;4.40;;
5006;SDS011;2522;50.972;11.046;2022-08-19T08:11:48;10.40;;;5.07;;
5006;SDS011;2522;50.972;11.046;2022-08-19T08:14:16;9.13;;;4.30;;
5006;SDS011;2522;50.972;11.046;2022-08-19T08:16:46;11.30;;;3.93;;
5006;SDS011;2522;50.972;11.046;2022-08-19T08:19:15;7.13;;;3.63;;
5006;SDS011;2522;50.972;11.046;2022-08-19T08:21:42;9.30;;;3.87;;
5006;SDS011;2522;50.972;11.046;2022-08-19T08:24:09;7.27;;;3.50;;
5006;SDS011;2522;50.972;11.046;2022-08-19T08:26:40;6.30;;;3.40;;
5006;SDS011;2522;50.972;11.046;2022-08-19T08:29:08;5.80;;;3.20;;
5006;SDS011;2522;50.972;11.046;2022-08-19T08:31:38;8.53;;;4.00;;
5006;SDS011;2522;50.972;11.046;2022-08-19T08:34:07;9.60;;;3.80;;
5006;SDS011;2522;50.972;11.046;2022-08-19T08:36:36;10.73;;;4.20;;
5006;SDS011;2522;50.972;11.046;2022-08-19T08:39:06;9.90;;;6.00;;
5006;SDS011;2522;50.972;11.046;2022-08-19T08:41:34;7.07;;;3.80;;
5006;SDS011;2522;50.972;11.046;2022-08-19T08:44:06;9.80;;;3.63;;
5006;SDS011;2522;50.972;11.046;2022-08-19T08:46:41;8.70;;;4.23;;
5006;SDS011;2522;50.972;11.046;2022-08-19T08:49:17;11.90;;;3.53;;
5006;SDS011;2522;50.972;11.046;2022-08-19T08:51:51;12.10;;;4.20;;
5006;SDS011;2522;50.972;11.046;2022-08-19T08:54:27;4.40;;;3.30;;
5006;SDS011;2522;50.972;11.046;2022-08-19T08:57:02;9.40;;;3.67;;
5006;SDS011;2522;50.972;11.046;2022-08-19T08:59:34;10.87;;;3.70;;
5006;SDS011;2522;50.972;11.046;2022-08-19T09:02:03;9.40;;;3.70;;
5006;SDS011;2522;50.972;11.046;2022-08-19T09:04:31;8.00;;;3.50;;
5006;SDS011;2522;50.972;11.046;2022-08-19T09:07:03;6.10;;;3.03;;
5006;SDS011;2522;50.972;11.046;2022-08-19T09:09:49;6.23;;;3.70;;
5006;SDS011;2522;50.972;11.046;2022-08-19T09:12:22;13.50;;;2.77;;
5006;SDS011;2522;50.972;11.046;2022-08-19T09:15:00;8.10;;;2.77;;
5006;SDS011;2522;50.972;11.046;2022-08-19T09:17:29;4.80;;;2.37;;
5006;SDS011;2522;50.972;11.046;2022-08-19T09:20:02;4.73;;;2.40;;
5006;SDS011;2522;50.972;11.046;2022-08-19T09:22:33;8.03;;;2.63;;
5006;SDS011;2522;50.972;11.046;2022-08-19T09:25:00;4.20;;;2.50;;
5006;SDS011;2522;50.972;11.046;2022-08-19T09:27:28;3.70;;;2.60;;
5006;SDS011;2522;50.972;11.046;2022-08-19T09:29:55;2.77;;;1.70;;
5006;SDS011;2522;50.972;11.046;2022-08-19T09:32:22;7.43;;;2.40;;
5006;SDS011;2522;50.972;11.046;2022-08-19T09:34:50;4.40;;;2.53;;
5006;SDS011;2522;50.972;11.046;2022-08-19T09:37:20;3.43;;;1.90;;
5006;SDS011;2522;50.972;11.046;2022-08-19T09:39:47;5.57;;;2.23;;
5006;SDS011;2522;50.972;11.046;2022-08-19T09:42:14;6.20;;;2.37;;
5006;SDS011;2522;50.972;11.046;2022-08-19T09:44:41;5.43;;;2.60;;
5006;SDS011;2522;50.972;11.046;2022-08-19T09:47:10;3.97;;;2.13;;
5006;SDS011;2522;50.972;11.046;2022-08-19T09:49:38;9.53;;;2.20;;
5006;SDS011;2522;50.972;11.046;2022-08-19T09:52:05;5.60;;;2.30;;
5006;SDS011;2522;50.972;11.046;2022-08-19T09:54:35;5.73;;;2.30;;
5006;SDS011;2522;50.972;11.046;2022-08-19T09:57:02;5.13;;;2.23;;
5006;SDS011;2522;50.972;11.046;2022-08-19T09:59:30;4.30;;;2.43;;
5006;SDS011;2522;50.972;11.046;2022-08-19T10:01:57;6.23;;;2.17;;
5006;SDS011;2522;50.972;11.046;2022-08-19T10:04:24;6.00;;;2.30;;
5006;SDS011;2522;50.972;11.046;2022-08-19T10:07:13;3.80;;;2.00;;
5006;SDS011;2522;50.972;11.046;2022-08-19T10:09:41;7.43;;;2.90;;
5006;SDS011;2522;50.972;11.046;2022-08-19T10:12:08;5.17;;;2.00;;
5006;SDS011;2522;50.972;11.046;2022-08-19T10:14:35;5.03;;;2.13;;
5006;SDS011;2522;50.972;11.046;2022-08-19T10:17:02;8.03;;;2.47;;
5006;SDS011;2522;50.972;11.046;2022-08-19T10:19:29;3.47;;;2.27;;
5006;SDS011;2522;50.972;11.046;2022-08-19T10:22:02;8.90;;;2.33;;
5006;SDS011;2522;50.972;11.046;2022-08-19T10:24:30;4.83;;;2.27;;
5006;SDS011;2522;50.972;11.046;2022-08-19T10:26:58;3.20;;;2.00;;
5006;SDS011;2522;50.972;11.046;2022-08-19T10:29:28;8.90;;;3.43;;
5006;SDS011;2522;50.972;11.046;2022-08-19T10:31:56;6.50;;;2.20;;
5006;SDS011;2522;50.972;11.046;2022-08-19T10:34:25;5.73;;;2.13;;
5006;SDS011;2522;50.972;11.046;2022-08-19T10:36:52;11.10;;;2.90;;
5006;SDS011;2522;50.972;11.046;2022-08-19T10:39:19;3.80;;;2.03;;
5006;SDS011;2522;50.972;11.046;2022-08-19T10:41:46;7.70;;;2.80;;
5006;SDS011;2522;50.972;11.046;2022-08-19T10:44:17;2.60;;;2.13;;
5006;SDS011;2522;50.972;11.046;2022-08-19T10:46:44;3.20;;;2.00;;
5006;SDS011;2522;50.972;11.046;2022-08-19T10:49:11;10.97;;;2.53;;
5006;SDS011;2522;50.972;11.046;2022-08-19T10:51:39;7.47;;;3.33;;
5006;SDS011;2522;50.972;11.046;2022-08-19T10:54:24;4.70;;;3.33;;
5006;SDS011;2522;50.972;11.046;2022-08-19T10:57:12;8.17;;;3.83;;
5006;SDS011;2522;50.972;11.046;2022-08-19T10:59:39;8.20;;;4.60;;
5006;SDS011;2522;50.972;11.046;2022-08-19T11:02:07;7.57;;;4.60;;
5006;SDS011;2522;50.972;11.046;2022-08-19T11:04:35;8.87;;;6.10;;
5006;SDS011;2522;50.972;11.046;2022-08-19T11:07:02;18.90;;;5.87;;
5006;SDS011;2522;50.972;11.046;2022-08-19T11:09:30;8.20;;;5.70;;
5006;SDS011;2522;50.972;11.046;2022-08-19T11:11:57;11.43;;;5.60;;
5006;SDS011;2522;50.972;11.046;2022-08-19T11:14:24;9.80;;;5.50;;
5006;SDS011;2522;50.972;11.046;2022-08-19T11:16:53;16.83;;;5.90;;
5006;SDS011;2522;50.972;11.046;2022-08-19T11:19:20;15.67;;;5.70;;
5006;SDS011;2522;50.972;11.046;2022-08-19T11:21:49;9.10;;;5.80;;
5006;SDS011;2522;50.972;11.046;2022-08-19T11:24:18;9.93;;;5.87;;
5006;SDS011;2522;50.972;11.046;2022-08-19T11:26:47;9.50;;;5.63;;
5006;SDS011;2522;50.972;11.046;2022-08-19T11:29:16;12.50;;;6.27;;
5006;SDS011;2522;50.972;11.046;2022-08-19T11:31:45;9.97;;;6.13;;
5006;SDS011;2522;50.972;11.046;2022-08-19T11:34:16;10.37;;;6.00;;
5006;SDS011;2522;50.972;11.046;2022-08-19T11:36:45;12.40;;;5.47;;
5006;SDS011;2522;50.972;11.046;2022-08-19T11:39:14;8.67;;;4.87;;
5006;SDS011;2522;50.972;11.046;2022-08-19T11:41:43;7.63;;;4.53;;
5006;SDS011;2522;50.972;11.046;2022-08-19T11:44:10;5.53;;;3.90;;
5006;SDS011;2522;50.972;11.046;2022-08-19T11:46:39;10.60;;;4.60;;
5006;SDS011;2522;50.972;11.046;2022-08-19T11:49:06;6.43;;;3.27;;
5006;SDS011;2522;50.972;11.046;2022-08-19T11:51:35;7.07;;;3.60;;
5006;SDS011;2522;50.972;11.046;2022-08-19T11:54:03;8.77;;;3.43;;
5006;SDS011;2522;50.972;11.046;2022-08-19T11:56:31;5.43;;;3.33;;
5006;SDS011;2522;50.972;11.046;2022-08-19T11:59:00;7.70;;;3.50;;
5006;SDS011;2522;50.972;11.046;2022-08-19T12:01:27;8.80;;;2.97;;
5006;SDS011;2522;50.972;11.046;2022-08-19T12:03:55;5.70;;;3.17;;
5006;SDS011;2522;50.972;11.046;2022-08-19T12:06:23;7.10;;;3.60;;
5006;SDS011;2522;50.972;11.046;2022-08-19T12:08:55;9.30;;;3.93;;
5006;SDS011;2522;50.972;11.046;2022-08-19T12:11:22;9.20;;;4.27;;
5006;SDS011;2522;50.972;11.046;2022-08-19T12:13:50;14.43;;;4.03;;
5006;SDS011;2522;50.972;11.046;2022-08-19T12:16:19;10.57;;;4.73;;
5006;SDS011;2522;50.972;11.046;2022-08-19T12:18:49;9.17;;;3.40;;
5006;SDS011;2522;50.972;11.046;2022-08-19T12:21:18;6.00;;;3.37;;
5006;SDS011;2522;50.972;11.046;2022-08-19T12:23:47;8.60;;;3.37;;
5006;SDS011;2522;50.972;11.046;2022-08-19T12:26:16;8.27;;;4.47;;
5006;SDS011;2522;50.972;11.046;2022-08-19T12:28:45;6.47;;;2.73;;
5006;SDS011;2522;50.972;11.046;2022-08-19T12:31:13;4.80;;;3.23;;
5006;SDS011;2522;50.972;11.046;2022-08-19T12:33:41;4.03;;;3.63;;
5006;SDS011;2522;50.972;11.046;2022-08-19T12:36:10;4.60;;;3.00;;
5006;SDS011;2522;50.972;11.046;2022-08-19T12:38:39;10.20;;;3.33;;
5006;SDS011;2522;50.972;11.046;2022-08-19T12:41:07;7.87;;;3.20;;
5006;SDS011;2522;50.972;11.046;2022-08-19T12:43:38;6.97;;;3.90;;
5006;SDS011;2522;50.972;11.046;2022-08-19T12:46:07;4.80;;;3.13;;
5006;SDS011;2522;50.972;11.046;2022-08-19T12:48:34;4.83;;;3.20;;
5006;SDS011;2522;50.972;11.046;2022-08-19T12:51:01;6.50;;;3.40;;
5006;SDS011;2522;50.972;11.046;2022-08-19T12:53:32;6.60;;;2.43;;
5006;SDS011;2522;50.972;11.046;2022-08-19T12:56:02;3.90;;;2.87;;
5006;SDS011;2522;50.972;11.046;2022-08-19T12:58:30;4.93;;;2.87;;
5006;SDS011;2522;50.972;11.046;2022-08-19T13:01:00;7.63;;;3.97;;
5006;SDS011;2522;50.972;11.046;2022-08-19T13:03:32;7.47;;;3.00;;
5006;SDS011;2522;50.972;11.046;2022-08-19T13:05:59;8.50;;;2.67;;
5006;SDS011;2522;50.972;11.046;2022-08-19T13:08:26;10.23;;;3.20;;
5006;SDS011;2522;50.972;11.046;2022-08-19T13:10:53;4.70;;;2.77;;
5006;SDS011;2522;50.972;11.046;2022-08-19T13:13:20;4.97;;;2.90;;
5006;SDS011;2522;50.972;11.046;2022-08-19T13:15:47;5.83;;;2.50;;
5006;SDS011;2522;50.972;11.046;2022-08-19T13:18:15;6.37;;;2.83;;
5006;SDS011;2522;50.972;11.046;2022-08-19T13:20:42;6.10;;;3.50;;
5006;SDS011;2522;50.972;11.046;2022-08-19T13:23:09;3.10;;;2.40;;
5006;SDS011;2522;50.972;11.046;2022-08-19T13:25:36;4.80;;;2.03;;
5006;SDS011;2522;50.972;11.046;2022-08-19T13:28:03;5.53;;;2.83;;
5006;SDS011;2522;50.972;11.046;2022-08-19T13:30:31;5.80;;;2.33;;
5006;SDS011;2522;50.972;11.046;2022-08-19T13:33:17;8.03;;;2.10;;
5006;SDS011;2522;50.972;11.046;2022-08-19T13:35:46;8.70;;;2.20;;
5006;SDS011;2522;50.972;11.046;2022-08-19T13:38:14;3.13;;;2.23;;
5006;SDS011;2522;50.972;11.046;2022-08-19T13:40:42;7.93;;;2.17;;
5006;SDS011;2522;50.972;11.046;2022-08-19T13:43:11;5.20;;;2.10;;
5006;SDS011;2522;50.972;11.046;2022-08-19T13:45:40;5.83;;;2.17;;
5006;SDS011;2522;50.972;11.046;2022-08-19T13:48:07;3.90;;;2.50;;
5006;SDS011;2522;50.972;11.046;2022-08-19T13:50:38;2.73;;;2.23;;
5006;SDS011;2522;50.972;11.046;2022-08-19T13:53:07;5.80;;;2.17;;
5006;SDS011;2522;50.972;11.046;2022-08-19T13:55:34;2.50;;;1.93;;
5006;SDS011;2522;50.972;11.046;2022-08-19T13:58:03;1.60;;;1.40;;
5006;SDS011;2522;50.972;11.046;2022-08-19T14:00:31;2.10;;;1.40;;
5006;SDS011;2522;50.972;11.046;2022-08-19T14:03:00;2.40;;;1.57;;
5006;SDS011;2522;50.972;11.046;2022-08-19T14:05:28;2.30;;;1.70;;
5006;SDS011;2522;50.972;11.046;2022-08-19T14:07:57;3.13;;;1.60;;
5006;SDS011;2522;50.972;11.046;2022-08-19T14:10:24;4.50;;;1.63;;
5006;SDS011;2522;50.972;11.046;2022-08-19T14:12:52;2.67;;;1.40;;
5006;SDS011;2522;50.972;11.046;2022-08-19T14:15:20;2.30;;;1.60;;
5006;SDS011;2522;50.972;11.046;2022-08-19T14:17:49;3.43;;;1.40;;
5006;SDS011;2522;50.972;11.046;2022-08-19T14:20:16;2.90;;;1.67;;
5006;SDS011;2522;50.972;11.046;2022-08-19T14:22:43;3.27;;;1.27;;
5006;SDS011;2522;50.972;11.046;2022-08-19T14:25:17;2.00;;;1.30;;
5006;SDS011;2522;50.972;11.046;2022-08-19T14:27:45;2.87;;;1.53;;
5006;SDS011;2522;50.972;11.046;2022-08-19T14:30:14;7.93;;;1.77;;
5006;SDS011;2522;50.972;11.046;2022-08-19T14:32:45;2.40;;;1.57;;
5006;SDS011;2522;50.972;11.046;2022-08-19T14:35:13;2.30;;;1.77;;
5006;SDS011;2522;50.972;11.046;2022-08-19T14:37:42;4.40;;;1.63;;
5006;SDS011;2522;50.972;11.046;2022-08-19T14:40:10;3.37;;;1.53;;
5006;SDS011;2522;50.972;11.046;2022-08-19T14:42:39;2.83;;;1.50;;
5006;SDS011;2522;50.972;11.046;2022-08-19T14:45:06;7.73;;;2.90;;
5006;SDS011;2522;50.972;11.046;2022-08-19T14:47:34;2.53;;;1.70;;
5006;SDS011;2522;50.972;11.046;2022-08-19T14:50:01;2.73;;;1.70;;
5006;SDS011;2522;50.972;11.046;2022-08-19T14:52:28;3.13;;;1.70;;
5006;SDS011;2522;50.972;11.046;2022-08-19T14:54:56;2.60;;;1.83;;
5006;SDS011;2522;50.972;11.046;2022-08-19T14:57:22;6.17;;;1.83;;
5006;SDS011;2522;50.972;11.046;2022-08-19T14:59:51;5.40;;;1.50;;
5006;SDS011;2522;50.972;11.046;2022-08-19T15:02:17;3.23;;;2.17;;
5006;SDS011;2522;50.972;11.046;2022-08-19T15:04:45;4.63;;;1.83;;
5006;SDS011;2522;50.972;11.046;2022-08-19T15:07:15;4.53;;;2.00;;
5006;SDS011;2522;50.972;11.046;2022-08-19T15:09:42;6.20;;;2.70;;
5006;SDS011;2522;50.972;11.046;2022-08-19T15:12:09;2.47;;;1.40;;
5006;SDS011;2522;50.972;11.046;2022-08-19T15:14:36;1.70;;;1.50;;
5006;SDS011;2522;50.972;11.046;2022-08-19T15:17:05;3.23;;;1.80;;
5006;SDS011;2522;50.972;11.046;2022-08-19T15:19:31;3.30;;;1.90;;
5006;SDS011;2522;50.972;11.046;2022-08-19T15:22:00;3.40;;;1.73;;
5006;SDS011;2522;50.972;11.046;2022-08-19T15:24:28;2.70;;;1.80;;
5006;SDS011;2522;50.972;11.046;2022-08-19T15:26:55;2.23;;;1.57;;
5006;SDS011;2522;50.972;11.046;2022-08-19T15:29:21;3.10;;;1.63;;
5006;SDS011;2522;50.972;11.046;2022-08-19T15:31:49;4.50;;;1.80;;
5006;SDS011;2522;50.972;11.046;2022-08-19T15:34:21;4.70;;;2.20;;
5006;SDS011;2522;50.972;11.046;2022-08-19T15:36:49;2.87;;;2.00;;
5006;SDS011;2522;50.972;11.046;2022-08-19T15:39:16;5.10;;;1.97;;
5006;SDS011;2522;50.972;11.046;2022-08-19T15:41:44;4.10;;;1.70;;
5006;SDS011;2522;50.972;11.046;2022-08-19T15:44:12;2.77;;;1.70;;
5006;SDS011;2522;50.972;11.046;2022-08-19T15:46:43;6.57;;;1.67;;
5006;SDS011;2522;50.972;11.046;2022-08-19T15:49:15;14.63;;;1.80;;
5006;SDS011;2522;50.972;11.046;2022-08-19T15:51:45;10.07;;;2.07;;
5006;SDS011;2522;50.972;11.046;2022-08-19T15:54:15;5.03;;;1.70;;
5006;SDS011;2522;50.972;11.046;2022-08-19T15:56:45;25.57;;;2.13;;
5006;SDS011;2522;50.972;11.046;2022-08-19T15:59:29;5.37;;;2.40;;
5006;SDS011;2522;50.972;11.046;2022-08-19T16:02:14;3.73;;;1.83;;
5006;SDS011;2522;50.972;11.046;2022-08-19T16:05:15;3.07;;;2.13;;
5006;SDS011;2522;50.972;11.046;2022-08-19T16:08:04;3.27;;;1.87;;
5006;SDS011;2522;50.972;11.046;2022-08-19T16:10:31;2.30;;;1.53;;
5006;SDS011;2522;50.972;11.046;2022-08-19T16:12:58;3.20;;;1.60;;
5006;SDS011;2522;50.972;11.046;2022-08-19T16:15:26;4.63;;;2.00;;
5006;SDS011;2522;50.972;11.046;2022-08-19T16:17:54;2.50;;;1.60;;
5006;SDS011;2522;50.972;11.046;2022-08-19T16:20:22;3.33;;;1.67;;
5006;SDS011;2522;50.972;11.046;2022-08-19T16:22:50;2.70;;;1.90;;
5006;SDS011;2522;50.972;11.046;2022-08-19T16:25:18;3.10;;;1.80;;
5006;SDS011;2522;50.972;11.046;2022-08-19T16:27:50;10.73;;;2.10;;
5006;SDS011;2522;50.972;11.046;2022-08-19T16:30:18;4.67;;;1.80;;
5006;SDS011;2522;50.972;11.046;2022-08-19T16:32:48;4.00;;;1.70;;
5006;SDS011;2522;50.972;11.046;2022-08-19T16:35:15;10.53;;;2.07;;
5006;SDS011;2522;50.972;11.046;2022-08-19T16:37:42;10.93;;;7.23;;
5006;SDS011;2522;50.972;11.046;2022-08-19T16:40:09;8.13;;;5.60;;
5006;SDS011;2522;50.972;11.046;2022-08-19T16:42:38;3.00;;;1.90;;
5006;SDS011;2522;50.972;11.046;2022-08-19T16:45:05;3.93;;;1.90;;
5006;SDS011;2522;50.972;11.046;2022-08-19T16:47:33;4.40;;;1.63;;
5006;SDS011;2522;50.972;11.046;2022-08-19T16:50:00;3.70;;;2.10;;
5006;SDS011;2522;50.972;11.046;2022-08-19T16:52:27;2.80;;;1.70;;
5006;SDS011;2522;50.972;11.046;2022-08-19T16:54:54;6.83;;;1.97;;
5006;SDS011;2522;50.972;11.046;2022-08-19T16:57:21;3.13;;;1.93;;
5006;SDS011;2522;50.972;11.046;2022-08-19T16:59:50;4.63;;;2.00;;
5006;SDS011;2522;50.972;11.046;2022-08-19T17:02:17;4.43;;;2.00;;
5006;SDS011;2522;50.972;11.046;2022-08-19T17:04:45;2.80;;;1.93;;
5006;SDS011;2522;50.972;11.046;2022-08-19T17:07:13;5.03;;;2.17;;
5006;SDS011;2522;50.972;11.046;2022-08-19T17:09:40;4.00;;;2.57;;
5006;SDS011;2522;50.972;11.046;2022-08-19T17:12:07;4.00;;;2.50;;
5006;SDS011;2522;50.972;11.046;2022-08-19T17:14:34;6.60;;;2.50;;
5006;SDS011;2522;50.972;11.046;2022-08-19T17:17:02;3.57;;;2.83;;
5006;SDS011;2522;50.972;11.046;2022-08-19T17:19:29;3.30;;;2.30;;
5006;SDS011;2522;50.972;11.046;2022-08-19T17:21:56;4.77;;;2.20;;
5006;SDS011;2522;50.972;11.046;2022-08-19T17:24:22;5.43;;;2.77;;
5006;SDS011;2522;50.972;11.046;2022-08-19T17:26:49;7.17;;;2.37;;
5006;SDS011;2522;50.972;11.046;2022-08-19T17:29:16;5.27;;;2.90;;
5006;SDS011;2522;50.972;11.046;2022-08-19T17:31:43;4.53;;;2.67;;
5006;SDS011;2522;50.972;11.046;2022-08-19T17:34:11;4.63;;;2.87;;
5006;SDS011;2522;50.972;11.046;2022-08-19T17:36:41;4.17;;;2.33;;
5006;SDS011;2522;50.972;11.046;2022-08-19T17:39:08;3.47;;;2.07;;
5006;SDS011;2522;50.972;11.046;2022-08-19T17:41:35;4.80;;;2.90;;
5006;SDS011;2522;50.972;11.046;2022-08-19T17:44:02;4.87;;;2.60;;
5006;SDS011;2522;50.972;11.046;2022-08-19T17:46:29;4.37;;;2.40;;
5006;SDS011;2522;50.972;11.046;2022-08-19T17:48:56;3.40;;;2.40;;
5006;SDS011;2522;50.972;11.046;2022-08-19T17:51:40;4.57;;;2.77;;
5006;SDS011;2522;50.972;11.046;2022-08-19T17:54:10;5.37;;;2.63;;
5006;SDS011;2522;50.972;11.046;2022-08-19T17:56:39;2.80;;;2.20;;
5006;SDS011;2522;50.972;11.046;2022-08-19T17:59:06;3.97;;;3.00;;
5006;SDS011;2522;50.972;11.046;2022-08-19T18:01:33;3.03;;;2.20;;
5006;SDS011;2522;50.972;11.046;2022-08-19T18:04:00;5.20;;;2.50;;
5006;SDS011;2522;50.972;11.046;2022-08-19T18:06:29;4.73;;;2.50;;
5006;SDS011;2522;50.972;11.046;2022-08-19T18:08:56;4.80;;;2.73;;
5006;SDS011;2522;50.972;11.046;2022-08-19T18:11:23;4.40;;;2.73;;
5006;SDS011;2522;50.972;11.046;2022-08-19T18:13:50;8.57;;;2.70;;
5006;SDS011;2522;50.972;11.046;2022-08-19T18:16:17;4.17;;;2.37;;
5006;SDS011;2522;50.972;11.046;2022-08-19T18:18:46;4.77;;;2.93;;
5006;SDS011;2522;50.972;11.046;2022-08-19T18:21:13;4.10;;;2.83;;
5006;SDS011;2522;50.972;11.046;2022-08-19T18:23:44;4.80;;;2.70;;
5006;SDS011;2522;50.972;11.046;2022-08-19T18:26:11;4.87;;;3.20;;
5006;SDS011;2522;50.972;11.046;2022-08-19T18:28:40;3.30;;;2.47;;
5006;SDS011;2522;50.972;11.046;2022-08-19T18:31:10;4.03;;;2.67;;
5006;SDS011;2522;50.972;11.046;2022-08-19T18:33:37;4.03;;;2.73;;
5006;SDS011;2522;50.972;11.046;2022-08-19T18:36:04;5.87;;;3.03;;